»·PEaware :: N478JT KPDX-KBFI

N478JT :: KPDX-KBFI

FLIGHT INFORMATION

Flight Status: Arrived
Operator: Privately registered:
United States
More flights under this callsign
Pilot: Gregory P. (35)
Aircraft: CESSNA 404 TITAN
(C404)
More flights by this aircraft type
Origin: KPDX Portland Intl
United States
Destination: KBFI Boeing Field/King Co Intl
United States
More flights between these airports :: More routes between these airports
Route: +PTLD1 BTG V495 SEA LACKR
File this flight plan on PilotEdge
Remarks: www.pilotcentral.org
Altitude:
(Current/Filed)
8,000ft
Speed:
(Current/Filed)
200kts
Departed: 11-Jan-17 02:47 PM
Arrived: 11-Jan-17 03:34 PM
Distance/Time
Traveled:
117nm/0:47
Distance/Time
To Go:
Arrived

Flight Plot

Page will automatically refresh every two minutes.

Flight plan parsing failed; only flown route is shown


Map Options




Map Legend


Flown Route
Filed Route
Departure Airport
Arrival Airport
Navaid (VOR, NDB)
Fix

Horizontal Profiles

Position Reports

Time Latitude Longitude Heading Altitude Ground
Speed
11-Jan-17 14:29 45.588109 -122.586080 119 22ft 0kts
11-Jan-17 14:30 45.588109 -122.586080 119 22ft 0kts
11-Jan-17 14:31 45.588108 -122.586077 119 22ft 0kts
11-Jan-17 14:32 45.588106 -122.586072 119 22ft 0kts
11-Jan-17 14:33 45.588104 -122.586067 119 22ft 0kts
11-Jan-17 14:34 45.588102 -122.586062 119 22ft 0kts
11-Jan-17 14:35 45.588101 -122.586058 119 22ft 0kts
11-Jan-17 14:36 45.588100 -122.586056 119 22ft 0kts
11-Jan-17 14:37 45.588099 -122.586054 119 22ft 0kts
11-Jan-17 14:38 45.588098 -122.586051 119 22ft 0kts
11-Jan-17 14:39 45.588097 -122.586049 119 22ft 0kts
11-Jan-17 14:40 45.588096 -122.586047 119 22ft 0kts
11-Jan-17 14:41 45.588095 -122.586045 119 22ft 0kts
11-Jan-17 14:42 45.588094 -122.586043 119 22ft 0kts
11-Jan-17 14:43 45.588949 -122.586412 302 22ft 9kts
11-Jan-17 14:44 45.591484 -122.592926 300 22ft 22kts
11-Jan-17 14:45 45.594135 -122.595715 40 22ft 5kts
11-Jan-17 14:46 45.594188 -122.595650 40 22ft 0kts
11-Jan-17 14:47 45.593920 -122.593355 118 23ft 46kts
11-Jan-17 14:48 45.579990 -122.558601 117 1235ft 121kts
11-Jan-17 14:49 45.561481 -122.512001 119 2906ft 145kts
11-Jan-17 14:50 45.537956 -122.453876 119 2998ft 180kts
11-Jan-17 14:51 45.553471 -122.409547 343 3537ft 158kts
11-Jan-17 14:52 45.592739 -122.434271 336 4676ft 153kts
11-Jan-17 14:53 45.631935 -122.460883 330 5778ft 160kts
11-Jan-17 14:54 45.666772 -122.502576 320 6960ft 165kts
11-Jan-17 14:55 45.703162 -122.543568 322 8018ft 169kts
11-Jan-17 14:56 45.744671 -122.586592 336 7999ft 190kts
11-Jan-17 14:57 45.796953 -122.583247 7 7999ft 190kts
11-Jan-17 14:58 45.849726 -122.574959 7 8001ft 191kts
11-Jan-17 14:59 45.902464 -122.566416 8 8002ft 191kts
11-Jan-17 15:00 45.955325 -122.557813 8 8003ft 191kts
11-Jan-17 15:01 46.008323 -122.549155 8 8002ft 192kts
11-Jan-17 15:02 46.061149 -122.540511 8 8000ft 190kts
11-Jan-17 15:03 46.113868 -122.531858 8 8000ft 191kts
11-Jan-17 15:04 46.166703 -122.523192 8 7999ft 190kts
11-Jan-17 15:05 46.219387 -122.514519 8 7999ft 190kts
11-Jan-17 15:06 46.272050 -122.505847 8 8000ft 190kts
11-Jan-17 15:07 46.324714 -122.497142 8 8000ft 190kts
11-Jan-17 15:08 46.377338 -122.488432 8 7999ft 191kts
11-Jan-17 15:09 46.429985 -122.479695 9 8002ft 190kts
11-Jan-17 15:10 46.482434 -122.470996 9 8017ft 190kts
11-Jan-17 15:11 46.534999 -122.462216 9 8015ft 190kts
11-Jan-17 15:12 46.587476 -122.453478 8 8014ft 189kts
11-Jan-17 15:13 46.639740 -122.444761 8 8014ft 189kts
11-Jan-17 15:14 46.691950 -122.436008 8 8013ft 188kts
11-Jan-17 15:15 46.743979 -122.427283 8 8011ft 188kts
11-Jan-17 15:16 46.795921 -122.418536 8 8002ft 188kts
11-Jan-17 15:17 46.847759 -122.409794 8 8002ft 187kts
11-Jan-17 15:18 46.898311 -122.393738 19 7690ft 189kts
11-Jan-17 15:19 46.948618 -122.370230 19 6814ft 189kts
11-Jan-17 15:20 46.998292 -122.346911 19 6024ft 185kts
11-Jan-17 15:21 47.046313 -122.324736 19 5298ft 177kts
11-Jan-17 15:22 47.092755 -122.302489 19 4560ft 174kts
11-Jan-17 15:23 47.138453 -122.287813 22 4981ft 182kts
11-Jan-17 15:24 47.184403 -122.260741 19 4994ft 171kts
11-Jan-17 15:26 47.261352 -122.225770 14 5143ft 170kts
11-Jan-17 15:27 47.308880 -122.209698 17 4890ft 164kts
11-Jan-17 15:28 47.348383 -122.193235 17 4139ft 123kts
11-Jan-17 15:29 47.383006 -122.195308 344 3021ft 125kts
11-Jan-17 15:30 47.423775 -122.214545 338 2768ft 169kts
11-Jan-17 15:31 47.461135 -122.245019 330 1723ft 121kts
11-Jan-17 15:32 47.490371 -122.269019 329 739ft 111kts
11-Jan-17 15:33 47.515389 -122.290223 328 121ft 98kts
11-Jan-17 15:34 47.526122 -122.300567 155 22ft 4kts
11-Jan-17 15:35 47.524461 -122.299793 154 22ft 0kts

Navigation Log

Ident Type
Flight plan parsing failed, navigation log unavailable